MARATONINA LAMARINA 2012 - km 13.8
Lama-San Giustino (Pg) - 07/10/2012

Risultati a cura di DreamRunners Perugia

 

 
Ordine d'arrivo generale maschile
Pos. Atleta Squadra Anno Cat. Tempo Media P.Cat
1 EL BARHOUMI TAOUFIQUE ATL. CASONE NOCETO 1981 A 00:40:58 2,58 0
2 NGENO DANIEL KIPKIRUI RUNNING CLUB FUTURA RM 1982 A 00:41:00 2,58 0
3 CHIRCHIR ERASTUS KIPKORIR ATL. FUTURA ROMA 1983 A 00:41:32 3,01 0
4 HAIBEL MOURAD LIBERTAS ORVIETO 1978 A 00:42:16 3,04 0
5 MARHNAOUI TARIK ATL. COLLEFERRO 1982 A 00:42:26 3,04 0
6 PASSERI RICCARDO C.S. AERONAUTICA MILITARE 1989 A 00:42:31 3,05 0
7 ELMAKHROUT ABDELAZIZ ATHLETIC TERNI 1978 A 00:43:19 3,08 0
8 BENHAMDANE RACHID UISP FORLI CESENA 1987 A 00:43:31 3,09 0
9 KABBOURI ABDELEKRIM ATERNO PESCARA 1982 A 00:43:58 3,11 0
10 CHERKAOUI LAALAMI RUNNING CLUB FUTURA RM 1977 B 00:44:55 3,15 0
11 CHECCARELLI ANTONIO POD. AVIS DERUTA 1982 A 00:45:06 3,16 1
12 TROIA DANIELE RUNNING CLUB FUTURA RM 1985 A 00:45:15 3,17 2
13 FILAJ PERPARIM U.P.POLICIANO 1964 D 00:46:42 3,23 1
14 EL KHALIL YASSIN CDP-T&RB GROUP PG 1992 A 00:47:12 3,25 3
15 LANZI SIMONE TIFERNO RUNNERS 1975 B 00:47:16 3,26 1
16 BETTACCHINI ANTONELLO TIFERNO RUNNERS 1971 C 00:47:32 3,27 1
17 VERGNI LORENZO ASAL FOLIGNO 1976 B 00:47:51 3,28 2
18 CERRINI FRANCESCO TIFERNO RUNNERS 1973 B 00:47:52 3,28 3
19 SANTINI STEFANO ATL. URBANIA 1971 C 00:47:56 3,28 2
20 BISTONI DIEGO TIFERNO RUNNERS 1972 C 00:48:02 3,29 3
21 PORAZZINI ALESSANDRO OLYMPIC RUNNERS LAMA 1981 A 00:48:48 3,32 4
22 REFI MIRKO POD. IL CAMPINO AR 1973 B 00:49:05 3,33 4
23 ZEIMA MOHAMED QT8-RUN MILANO 1961 E 00:49:15 3,34 1
24 VOLPI CRISTIAN U.P. POLICIANO AREZZO 1974 B 00:49:22 3,35 5
25 PENNACCHINI LUCA AVIS SANSEPOLCRO 1970 C 00:49:23 3,35 4
26 VICI CESARE G.P. LUCREZIA PU 1993 A 00:49:24 3,35 5
27 FARINELLI ROBERTO U.P. POLICIANO AREZZO 1973 B 00:49:36 3,36 6
28 FIORUCCI FRANCESCO ATLETA LIBERO 1983 A 00:49:38 3,36 6
29 BENEDETTI FERDINANDO ATL. AVIS PERUGIA 1962 E 00:49:47 3,36 2
30 BOSCHETTI MATTIA ATL. LIBERTAS ARCS 1989 A 00:49:50 3,37 7
31 PORTOGHESE GIUSEPPE POD. AVIS DERUTA 1975 B 00:49:50 3,37 7
32 MANENTI MARCO ATL. URBANIA 1974 B 00:50:02 3,38 8
33 COCCA VINCENZO ATL. SPOLETO 2010 1974 B 00:50:03 3,38 9
34 BOINEGA LUCA POD. TIFERNUM 1991 A 00:50:37 3,40 8
35 LICATA GABRIELE GUBBIO RUNNERS 1973 B 00:50:38 3,40 10
36 SCASSELLATI VALERIO ATL. TAINO G.TADINO 1979 A 00:50:50 3,41 9
37 LIBERTI PAOLO ATL. AVIS PERUGIA 1980 A 00:51:00 3,42 10
38 CAVALLUCCI MARCO RUNNERS SANGEMINI TR 1967 D 00:51:01 3,42 2
39 PIRILLI ANDREA DREAM RUNNERS PG 1969 C 00:51:02 3,42 5
40 RENZETTI STEFANO PALESTRA GI POINT 1966 D 00:51:03 3,42 3
41 MINCIOTTI MASSIMILIANO ATL. CAPANNE PG 1972 C 00:51:08 3,42 6
42 ROCCHI MASSIMILIANO ATL. LIBERTAS ARCS 1980 A 00:51:08 3,42 11
43 BORGIONI FABRIZIO ATL. CAPANNE PG 1972 C 00:51:09 3,42 7
44 COSTANZI ENRICO RUNNERS SANGEMINI TR 1978 A 00:51:13 3,43 12
45 CIOTTI STEFANO ATLETICA 75 CATTOLICA 1963 D 00:51:22 3,43 4
46 ROSAI VALENTINO POD. IL CAMPINO AR 1964 D 00:51:26 3,44 5
47 INNOCENTI FRANCESCO AVIS SANSEPOLCRO 1977 B 00:51:30 3,44 11
48 SOLDINI LADO ATL. SESTINI AREZZO 1965 D 00:51:34 3,44 6
49 CORNICIA FILIPPO QT8-RUN MILANO 1966 D 00:51:36 3,44 7
50 BALDELLI GIUSEPPE ATL. AVIS PERUGIA 1968 C 00:51:41 3,45 8
51 FONTANI ETTORE POD. IL CAMPINO AR 1966 D 00:51:42 3,45 8
52 TORTOIOLI MARCO ATL. AVIS PERUGIA 1972 C 00:51:46 3,45 9
53 FERRETTI MARCO ATL. CAPANNE PG 1965 D 00:51:52 3,46 9
54 RANIERI GIOVANNI OLYMPIC RUNNERS LAMA 1965 D 00:51:59 3,46 10
55 VENTRICE ROCCO QT8-RUN MILANO 1959 E 00:52:00 3,46 3
56 DE ANGELIS CARLO ATL. URBANIA 1976 B 00:52:03 3,46 12
57 FRATINI FRANCESCO MARATHON CLUB C. DI CASTELLO 1981 A 00:52:05 3,46 13
58 SANSUINI SIMONE POD. TIFERNUM 1979 A 00:52:07 3,47 14
59 GIOVANNINI LORENZO CDP-T&RB GROUP PG 1975 B 00:52:09 3,47 13
60 LISI VAIANI FEDERICO PODISTICA AREZZO 1973 B 00:52:10 3,47 14
61 CAPANNI FRANCESCO MARATHON CLUB C. DI CASTELLO 1974 B 00:52:13 3,47 15
62 FRATINI DANIELE ATL. TAINO G.TADINO 1979 A 00:52:21 3,48 15
63 GIOVAGNOLI MARCO OLYMPIC RUNNERS LAMA 1974 B 00:52:26 3,48 16
64 GUIDI ROBERTO POD. TIFERNUM 1964 D 00:52:26 3,48 11
65 BRAGANTI CLAUDIO TIFERNO RUNNERS 1966 D 00:52:29 3,48 12
66 COMANDUCCI MASSIMO AVIS SANSEPOLCRO 1975 B 00:52:34 3,49 17
67 CARPINELLI VIRGILIO AVIS SANSEPOLCRO 1966 D 00:52:42 3,49 13
68 SERBOLI SIMONE U.P. POLICIANO AREZZO 1974 B 00:52:48 3,50 18
69 LEONARDI EMILIO AVIS SANSEPOLCRO 1978 A 00:52:49 3,50 16
70 CAPORALETTI SIMONE UISPORT AVIS TODI 1976 B 00:53:10 3,51 19
71 BRACHELENTE LORENZO OLYMPIC RUNNERS LAMA 1985 A 00:53:12 3,51 17
72 MARIOLI STEFANO CDP-T&RB GROUP PG 1963 D 00:53:15 3,52 14
73 GIANNONI CLAUDIO CDP-T&RB GROUP PG 1961 E 00:53:18 3,52 4
74 DURANTI GABRIELE CDP-T&RB GROUP PG 1972 C 00:53:19 3,52 10
75 ZUCCHINI ANDREA MARATHON CLUB C. DI CASTELLO 1971 C 00:53:22 3,52 11
76 D'AMICO GIOVANNI CDP-T&RB GROUP PG 1956 F 00:53:27 3,52 1
77 ACCALAI ADOLFO ATLETICA 75 CATTOLICA 1950 G 00:53:31 3,53 1
78 BRAGETTI GIAMPIERO ATL. IL COLLE PERUGIA 1970 C 00:53:34 3,53 12
79 ANDREONI DANIELE POD. TIFERNUM 1975 B 00:53:37 3,53 20
80 CELLI MARCO AVIS SANSEPOLCRO 1970 C 00:53:40 3,53 13
81 RUBELLINI LEONARDO TIFERNO RUNNERS 1971 C 00:53:41 3,53 14
82 FANELLI RICCARDO ATL. AVIS PERUGIA 1953 F 00:53:41 3,53 2
83 PASCUCCI VALTER TIFERNO RUNNERS 1968 C 00:53:43 3,54 15
84 BIAGIONI MASSIMO ATL. TAINO G.TADINO 1974 B 00:53:44 3,54 21
85 SPADONI RAFFAELE ATL. URBANIA 1978 A 00:53:45 3,54 18
86 PANTALLA FABIO ATL. ASAL FOLIGNO 1984 A 00:53:47 3,54 19
87 GALAURCHI RODOLFO POD. IL CAMPINO AR 1969 C 00:53:47 3,54 16
88 CONTI GREGORIO TRIATHLON ALTO TEVERE 1992 A 00:53:48 3,54 20
89 LELLI FILIPPO ATL. FUTURA FIGLINE 1966 D 00:53:49 3,54 15
90 CUITI STEFANO CDP-T&RB GROUP PG 1973 B 00:53:54 3,54 22
91 DI CRISTO CIRO POD. IL CAMPINO AR 1974 B 00:53:54 3,54 23
92 BESI DAVIDE TIFERNO RUNNERS 1978 A 00:53:56 3,54 21
93 GIACOPELLI ROBERTO ROAD RUNNERS CLUB MILANO 1972 C 00:54:00 3,55 17
94 BOINEGA LORENZO POD. TIFERNUM 1991 A 00:54:06 3,55 22
95 MARTINETTI FABRIZIO CDP-T&RB GROUP PG 1955 F 00:54:10 3,56 3
96 CORSINI FRANCESCO OLYMPIC RUNNERS LAMA 1989 A 00:54:15 3,56 23
97 CANESTRELLI FILIPPO TRIATHLON ALTO TEVERE 1969 C 00:54:17 3,56 18
98 BIANCHINI DANIELE ATLETA LIBERO 1979 A 00:54:19 3,56 24
99 IONI GIAMPAOLO ATL. URBANIA 1966 D 00:54:21 3,56 16
100 GAILARDI ALESSIO A.S.P.A. BASTIA U. PG 1973 B 00:54:23 3,56 24
101 CARDINALI MAURO MARATHON CLUB C. DI CASTELLO 1969 C 00:54:28 3,57 19
102 CASALINI SERGIO POD. WINNER FOLIGNO 1984 A 00:54:30 3,57 25
103 FLORIDI LUCIO MARATHON CLUB C. DI CASTELLO 1952 G 00:54:34 3,57 2
104 GIULIANI LUCA ATLETA LIBERO 1983 A 00:54:38 3,58 26
105 OLIVIERI VALTER POD. TIFERNUM 1966 D 00:54:40 3,58 17
106 ANTONINI GIANLUCA ASSISI RUNNERS 1972 C 00:54:40 3,58 20
107 ROSSINI GIANFRANCO A.S.P.A. BASTIA U. PG 1962 E 00:54:46 3,58 5
108 TOSI ADRIANO QT8-RUN MILANO 1983 A 00:54:48 3,58 27
109 BARBERI ALESSANDRO TIFERNO RUNNERS 1978 A 00:54:50 3,58 28
110 PIERINI GIUSEPPE MARATHON CLUB C. DI CASTELLO 1961 E 00:54:55 3,59 6
111 GREGORI NICOLA AVIS SANSEPOLCRO 1972 C 00:54:59 3,59 21
112 COVARELLI MAURO ATL. AVIS PERUGIA 1959 E 00:55:02 3,59 7
113 BERTOLINI ADEMARO CDP-T&RB GROUP PG 1956 F 00:55:05 3,59 4
114 MANGIALASCHE ALFONSO CDP-T&RB GROUP PG 1951 G 00:55:06 4,00 3
115 MAZZIERLI ROBERTO POD. IL CAMPINO AR 1965 D 00:55:06 4,00 18
116 CORZANI PIER FILIPPO U.P. POLICIANO AREZZO 1973 B 00:55:08 4,00 25
117 ALVISI ANDREA TRIATHLON ALTO TEVERE 1969 C 00:55:11 4,00 22
118 CECCHINI CLAUDIO MARATHON CLUB C. DI CASTELLO 1959 E 00:55:14 4,00 8
119 PAOLUCCI MARCO OLYMPIC RUNNERS LAMA 1975 B 00:55:17 4,00 26
120 CONTI MARCO ATLETA LIBERO 1984 A 00:55:22 4,01 29
121 PAONE EMILIO MARATHON CLUB C. DI CASTELLO 1976 B 00:55:23 4,01 27
122 TOMASSOLI MASSIMILIANO CDP-T&RB GROUP PG 1968 C 00:55:25 4,01 23
123 BUSTO MARCO GUBBIO RUNNERS 1964 D 00:55:26 4,01 19
124 GHIANDAI GIANNI ATL. SESTINI AREZZO 1972 C 00:55:30 4,01 24
125 ZOCCOLINI MICHELE ATL. CAPANNE PG 1974 B 00:55:32 4,01 28
126 CHIOCCI CESARE AVIS SANSEPOLCRO 1965 D 00:55:34 4,02 20
127 MARINI GIUSEPPE ATLETA LIBERO 1982 A 00:55:35 4,02 30
128 BRUNELLI ALESSANDRO DREAM RUNNERS PG 1978 A 00:55:36 4,02 31
129 BRUNI VALERIO ATLETA LIBERA 1987 A 00:55:37 4,02 32
130 ANGELUZZI MASSIMO RUNNERS SANGEMINI TR 1963 D 00:55:39 4,02 21
131 BRICCA MIRKO MARATHON CLUB C. DI CASTELLO 1987 A 00:55:40 4,02 33
132 GIGLIETTI SECONDO ATL. AVIS PERUGIA 1951 G 00:55:42 4,02 4
133 SADOTTI GILBERTO PODISTICA AREZZO 1965 D 00:55:46 4,02 22
134 ARCELLI FABRIZIO ATL. AVIS PERUGIA 1964 D 00:55:55 4,03 23
135 MARTINELLI LUCA MARATHON CLUB C. DI CASTELLO 1962 E 00:55:57 4,03 9
136 BETTARELLI STEFANO ATLETA LIBERO 1979 A 00:55:58 4,03 34
137 MARCONI FEDERICO ATL. AVIS PERUGIA 1969 C 00:55:58 4,03 25
138 CAMBIOTTI MAURO ATL. AVIS PERUGIA 1951 G 00:56:00 4,03 5
139 SOLDANI MICHELE TIFERNO RUNNERS 1969 C 00:56:05 4,04 26
140 SPACCI FABRIZIO CDP-T&RB GROUP PG 1966 D 00:56:06 4,04 24
141 RADICCHI EMANUELE GUBBIO RUNNERS 1975 B 00:56:07 4,04 29
142 RICCIARELLI ROCCO POD. AVIS DERUTA 1983 A 00:56:08 4,04 35
143 BALDI RINALDO ATL. SANGIOVANNESE AR 1953 F 00:56:10 4,04 5
144 DEL SIENA MAURICE AVIS SANSEPOLCRO 1962 E 00:56:13 4,04 10
145 MARIANI MASSIMO POD. LINO SPAGNOLI PG 1962 E 00:56:14 4,04 11
146 MERCANTINI FRANCO POD. CARSULAE TR 1965 D 00:56:16 4,05 25
147 FRENGUELLI FRANCO ATL. AVIS PERUGIA 1956 F 00:56:17 4,05 6
148 NATALICCHI CESARE DREAM RUNNERS PG 1956 F 00:56:20 4,05 7
149 MATTIOLI CLAUDIO ATL. AVIS PERUGIA 1959 E 00:56:21 4,05 12
150 BALLINI FRANCESCO TIFERNO RUNNERS 1969 C 00:56:25 4,05 27
151 CANAFOGLIA VALERIO POD. WINNER FOLIGNO 1978 A 00:56:29 4,06 36
152 PRADARELLI DANIELE G.P. LUCREZIA PU 1963 D 00:56:32 4,06 26
153 DI MATTEO MARIO ATL. CAPANNE PG 1955 F 00:56:38 4,06 8
154 SCARPELLONI MAURO A.S.P.A. BASTIA U. PG 1960 E 00:56:46 4,07 13
155 MARIUCCI ANDREA GUBBIO RUNNERS 1974 B 00:56:48 4,07 30
156 FINAURO CARLO SATRINI GROUP ATHLETIC TREVI 1966 D 00:56:49 4,07 27
157 PECORARI MASSIMO AVIS SANSEPOLCRO 1965 D 00:56:50 4,07 28
158 CONTI STEFANO ATL. CAPANNE PG 1960 E 00:56:51 4,07 14
159 BOSCHETTI FRANCESCO POD. LINO SPAGNOLI PG 1969 C 00:56:52 4,07 28
160 BANELLI SERGIO ATL. SESTINI AREZZO 1966 D 00:56:52 4,07 29
161 CRISPOLTONI GIORGIO TIFERNO RUNNERS 1970 C 00:56:53 4,07 29
162 ARCALENI MICHELE ATLETA LIBERO 1970 C 00:56:55 4,07 30
163 ROMANO ANTONIO POD. IL CAMPINO AR 1965 D 00:56:55 4,07 30
164 MAURI FILIPPO QT8-RUN MILANO 1978 A 00:56:58 4,08 37
165 ANGELONI GIUSEPPE GUBBIO RUNNERS 1969 C 00:57:00 4,08 31
166 TARABELLA STEFANO MARATHON CLUB C. DI CASTELLO 1977 B 00:57:03 4,08 31
167 FORMICA ANDREA G.S. MARSICA 1972 C 00:57:03 4,08 32
168 BELLUCCI FRANCESCO AVIS SANSEPOLCRO 1968 C 00:57:07 4,08 33
169 PIGINI ALVARO UISPORT AVIS TODI 1959 E 00:57:12 4,09 15
170 GOBBINI SIMONE ATL. AVIS PERUGIA 1972 C 00:57:12 4,09 34
171 SALUSTRI MORENO ATL. ASAL FOLIGNO 1964 D 00:57:14 4,09 31
172 MEOZZI MIRCO AVIS SANSEPOLCRO 1975 B 00:57:18 4,09 32
173 BOGLIARI ROBERTO MARATHON CLUB C. DI CASTELLO 1974 B 00:57:19 4,09 33
174 BINACCI MASSIMO ATL. AVIS PERUGIA 1965 D 00:57:29 4,10 32
175 BOINEGA NUNZIO POD. TIFERNUM 1972 C 00:57:29 4,10 35
176 FIORUCCI FRANCESCO ATLETA LIBERO 1976 B 00:57:30 4,10 34
177 BELLI FRANCO AVIS SANSEPOLCRO 1961 E 00:57:30 4,10 16
178 VERDELLI MORENO RINASCITA MONTEVARCHI 1960 E 00:57:31 4,10 17
179 MAZZI ANDREA PODISTICA AREZZO 1968 C 00:57:35 4,10 36
180 ARDENGHI GIUSEPPE EUROELETTRICA 1962 E 00:57:36 4,10 18
181 BORGOGNI ANDREA PODISTICA AREZZO 1975 B 00:57:37 4,11 35
182 BAZZUCCHI MAURO A.S.P.A. BASTIA U. PG 1965 D 00:57:37 4,11 33
183 FOSCI MAURIZIO POD. TIFERNUM 1970 C 00:57:38 4,11 37
184 MATINI LUIGI U.P. POLICIANO AREZZO 1960 E 00:57:39 4,11 19
185 POLTICCHIA ROBERTO CDP-T&RB GROUP PG 1964 D 00:57:41 4,11 34
186 NUNZIATI MAURO ATL. SESTINI AREZZO 1966 D 00:57:43 4,11 35
187 GIORDANI MIRKO ESERCITO CE.SEL.NA FOLIGNO 1975 B 00:57:44 4,11 36
188 BENEDETTI STEFANO ATL. IL COLLE PERUGIA 1969 C 00:57:50 4,11 38
189 MONNANNI ENRICO ATL. SANGIOVANNESE AR 1965 D 00:57:50 4,11 36
190 GALIOTTO DANIELE ATLETICA TAINO 1981 A 00:57:52 4,12 38
191 VISI VINCENZO AVIS SANSEPOLCRO 1967 D 00:57:59 4,12 37
192 BOTTACCIOLI CARLO ATL. AVIS PERUGIA 1968 C 00:58:00 4,12 39
193 TIMI MAURO A.S.P.A. BASTIA U. PG 1960 E 00:58:01 4,12 20
194 GRELLI ALESSANDRO GUBBIO RUNNERS 1985 A 00:58:14 4,13 39
195 BALLOTTI FILIPPO ATL. SESTINI AREZZO 1975 B 00:58:23 4,14 37
196 MANZETTI BRUNO SATRINI GROUP ATHLETIC TREVI 1941 I 00:58:24 4,14 1
197 COMANDUCCI ROBERTO AVIS SANSEPOLCRO 1964 D 00:58:29 4,14 38
198 BRUSCHI VALERIO TIFERNO RUNNERS 1966 D 00:58:30 4,14 39
199 MIGLIORATI FRANCK MARATHON CLUB C. DI CASTELLO 1969 C 00:58:40 4,15 40
200 CAIOTTI ANDREA MARATHON CLUB C. DI CASTELLO 1973 B 00:58:41 4,15 38
201 MEINI GIUSEPPE AVIS SANSEPOLCRO 1968 C 00:58:42 4,15 41
202 CANCELLONI MARCELLO ATL. AVIS PERUGIA 1972 C 00:58:44 4,15 42
203 MANCINI ALESSIO PODISTICA AREZZO 1973 B 00:58:46 4,16 39
204 BIRETTONI ANDREA MARATHON CLUB C. DI CASTELLO 1991 A 00:58:49 4,16 40
205 BERNINI LORENZO ATL. SANGIOVANNESE AR 1973 B 00:58:51 4,16 40
206 CARDINALI LUCA MARATHON CLUB C. DI CASTELLO 1982 A 00:58:52 4,16 41
207 GUERCINI BRUNO ATL. IL COLLE PERUGIA 1949 G 00:58:53 4,16 6
208 BRACCINI GIORGIO POL. SAN PIETRO 1956 F 00:58:56 4,16 9
209 BALZANO MAURIZIO POD. IL CAMPINO AR 1975 B 00:58:56 4,16 41
210 BALDI SIMONE POD. IL CAMPINO AR 1973 B 00:58:57 4,16 42
211 COPPINI VALTER ATL. LIBERTAS ARCS 1965 D 00:59:03 4,17 40
212 ALESSANDRONI DAVIDE ATL. URBANIA 1974 B 00:59:04 4,17 43
213 MOZZI GIUSEPPE QT8-RUN MILANO 1970 C 00:59:06 4,17 43
214 COFANI MASSIMILIANO ATL. AVIS PERUGIA 1974 B 00:59:14 4,18 44
215 RIBIGINI LEONARDO CDP-T&RB GROUP PG 1976 B 00:59:15 4,18 45
216 VOLPI STEFANO U.P. POLICIANO AREZZO 1980 A 00:59:16 4,18 42
217 PARRI GIOVANNI ATL. CAPANNE PG 1962 E 00:59:18 4,18 21
218 BISCARINI PAOLO CDP-T&RB GROUP PG 1958 E 00:59:19 4,18 22
219 LAROTONDA ATTILIO ATL. AVIS PERUGIA 1966 D 00:59:20 4,18 41
220 NUCCI GIANLUCA ATLETA LIBERO 1970 C 00:59:23 4,18 44
221 POLVERINI NICOLA ATLETA LIBERO 1987 A 00:59:24 4,18 43
222 RIDONI MASSIMO ATL. SESTINI AREZZO 1965 D 00:59:24 4,18 42
223 AMATORI ROBERTO ASD BROMBO RUNNERS 1964 D 00:59:24 4,18 43
224 PINACOLI CARLO ALBERTO ATL. TAINO G.TADINO 1970 C 00:59:29 4,19 45
225 INGROSSO ALESSANDRO ATL. TAINO G.TADINO 1982 A 00:59:30 4,19 44
226 GUERRA SETTIMIO POD. TIFERNUM 1959 E 00:59:33 4,19 23
227 PROCACCI NADIO MARATHON CLUB C. DI CASTELLO 1970 C 00:59:39 4,19 46
228 MARRA GIOVANNI AMATORI ATL. CARRARA 1965 D 00:59:40 4,19 44
229 GIACCHERINI PAOLO POD. IL CAMPINO AR 1968 C 00:59:41 4,19 47
230 LOMBARDI MIRKO ATLETA LIBERO 1974 B 00:59:42 4,20 46
231 MARTINELLI VINICIO PODISTICA AREZZO 1964 D 00:59:43 4,20 45
232 TARTAGLIONE PIETRO PODISTICA AREZZO 1966 D 00:59:43 4,20 46
233 MARZIALI DANILO ATL. SESTINI AREZZO 1961 E 00:59:51 4,20 24
234 PAOLONI PIERO ATL. CAPANNE PG 1964 D 00:59:51 4,20 47
235 D'ASCOLI FEDERICO U.P. POLICIANO AREZZO 1975 B 00:59:53 4,20 47
236 CRISTOFANI CLAUDIO AVIS FORLI' 1965 D 00:59:54 4,20 48
237 MORETTI GIORGIO ATLETA LIBERO 1964 D 00:59:54 4,20 49
238 MARGHI ASCANIO MARATHON CLUB C. DI CASTELLO 1966 D 00:59:54 4,20 50
239 MENCAGLI MARINO POD. IL CAMPINO AR 1969 C 00:59:55 4,21 48
240 BIANCHI WALTER DREAM RUNNERS PG 1958 E 00:59:56 4,21 25
241 MONOTTI LUCA ATL. AVIS PERUGIA 1971 C 00:59:57 4,21 49
242 SFONDRINI RICCARDO QT8-RUN MILANO 1968 C 00:59:58 4,21 50
243 CHIATTI MARCO TIFERNO RUNNERS 1975 B 00:59:59 4,21 48
244 BRIZZI MARCELLO AVIS SANSEPOLCRO 1972 C 01:00:00 4,21 51
245 PERUZZI GIANCARLO PODISTICA AREZZO 1957 F 01:00:01 4,21 10
246 LIVI PAOLO PODISTICA AREZZO 1956 F 01:00:02 4,21 11
247 GRAZIOTTI FABRIZIO PODISTICA AREZZO 1959 E 01:00:02 4,21 26
248 BRANDI LUCA POD. TIFERNUM 1984 A 01:00:06 4,21 45
249 MORI EMANUELE U.P. POLICIANO AREZZO 1978 A 01:00:06 4,21 46
250 BRIZZI MASSIMO AVIS SANSEPOLCRO 1971 C 01:00:08 4,21 52
251 PALLERI LUCIANO OLYMPIC RUNNERS LAMA 1952 G 01:00:09 4,22 7
252 CASINI ALESSANDRO AVIS SANSEPOLCRO 1970 C 01:00:11 4,22 53
253 CAGNONI LUCA MARATHON CLUB C. DI CASTELLO 1964 D 01:00:12 4,22 51
254 BIANCHI WALTER PODISMO RICCIONE 1946 H 01:00:13 4,22 1
255 FEDI ALESSANDRO G.S. FILIPPIDE C. D. LAGO 1966 D 01:00:15 4,22 52
256 GIORGINI ROSSANO G.P. LUCREZIA PU 1970 C 01:00:15 4,22 54
257 TOGNOLONI ITALO ATL. AVIS PERUGIA 1945 H 01:00:17 4,22 2
258 FAZI MAURO ATL. TAINO G.TADINO 1971 C 01:00:19 4,22 55
259 ROSSI MARCO ATLETA LIBERO 1977 B 01:00:19 4,22 49
260 SOLFANELLI MIRCO G.S. FILIPPIDE C. D. LAGO 1964 D 01:00:23 4,23 53
261 FIORI LEONARDO ATL. CAPANNE PG 1962 E 01:00:26 4,23 27
262 MAGGI DIEGO POD. TIFERNUM 1962 E 01:00:27 4,23 28
263 REMEDIA DANIELE ATLETA LIBERO 1974 B 01:00:29 4,23 50
264 PELLICCIA SERGIO CDP-T&RB GROUP PG 1966 D 01:00:32 4,23 54
265 ESPOSITO MARIO ATLETA LIBERO 1973 B 01:00:34 4,23 51
266 ORSINI FEDERICI CRISTIANO U.P. POLICIANO AREZZO 1973 B 01:00:35 4,23 52
267 ROSSI ALESSANDRO POD. AVIS SANSEPOLCRO 1960 E 01:00:37 4,24 29
268 SGUERRI SILVANO ATL. SESTINI AREZZO 1946 H 01:00:38 4,24 3
269 MAGRINI ROSSANO ATLETA LIBERO 1970 C 01:00:39 4,24 56
270 GALLI SERGIO CDP-T&RB GROUP PG 1972 C 01:00:40 4,24 57
271 PAZZAGLIA ROBERTO MARATHON CLUB C. DI CASTELLO 1957 F 01:00:41 4,24 12
272 ALLEGRUCCI CRISTIAN GUBBIO RUNNERS 1994 A 01:00:42 4,24 47
273 VAGNARELLI GIANLUCA GUBBIO RUNNERS 1972 C 01:00:42 4,24 58
274 OTTITI STEFANO ATLETA LIBERO 1978 A 01:00:45 4,24 48
275 POLENZANI ANDREA ATLETA LIBERO 1989 A 01:00:51 4,25 49
276 PODERINI DANIELE TIFERNO RUNNERS 1976 B 01:00:53 4,25 53
277 ANGORI LORENZO POD. IL CAMPINO AR 1974 B 01:00:57 4,25 54
278 PACINI MASSIMILIANO RINASCITA MONTEVARCHI 1977 B 01:01:01 4,25 55
279 GUERRI ALESSIO RINASCITA MONTEVARCHI 1973 B 01:01:01 4,25 56
280 ANDREINI MICHELE AVIS SANSEPOLCRO 1971 C 01:01:01 4,25 59
281 BERTI PAOLO POD. IL CAMPINO AR 1972 C 01:01:07 4,26 60
282 MACCHIONI CLAUDIO ATL. AVIS PERUGIA 1977 B 01:01:10 4,26 57
283 BRUNETTI MARCO CDP-T&RB GROUP PG 1968 C 01:01:20 4,27 61
284 BARTOCCINI PAOLO VOLUMNIA SERICAP PG 1975 B 01:01:21 4,27 58
285 JOVINE ALESSANDRO ATL. LIBERTAS ARCS 1950 G 01:01:22 4,27 8
286 CANGI ANDREA ATLETA LIBERO 1986 A 01:01:22 4,27 50
287 TOMBA EMANUELE UISPORT AVIS TODI 1967 D 01:01:23 4,27 55
288 MANFUCCI SAURO MARATHON CLUB C. DI CASTELLO 1956 F 01:01:26 4,27 13
289 CESARI ANGELO MARATHON CLUB C. DI CASTELLO 1970 C 01:01:27 4,27 62
290 CHIMENTI FRANCESCO AVIS SANSEPOLCRO 1971 C 01:01:28 4,27 63
291 COSTAMAGNA MASSIMO ATLETA LIBERO 1954 F 01:01:29 4,27 14
292 CAVALAGLIO VIVIANO ATL. AVIS PERUGIA 1962 E 01:01:32 4,28 30
293 LUCCHETTI PATRIZIO OLYMPIC RUNNERS LAMA 1964 D 01:01:33 4,28 56
294 CHECCAGLINI LUCIANO AVIS SANSEPOLCRO 1948 G 01:01:34 4,28 9
295 MASTRINI MAURIZIO POD. WINNER FOLIGNO 1963 D 01:01:35 4,28 57
296 FRANCESCHINI CESARE G.S. CICLI EFFEFFE 1974 B 01:01:37 4,28 59
297 MARTINELLI ROBERTO LA CHIANINA MONTEPULCIANO 1966 D 01:01:39 4,28 58
298 BRODI VERARDO MARATHON CLUB C. DI CASTELLO 1947 H 01:01:45 4,28 4
299 VECCHINI SERGIO MARATHON CLUB C. DI CASTELLO 1970 C 01:01:48 4,29 64
300 SGUILLA ENZO ATL. AVIS PERUGIA 1951 G 01:01:50 4,29 10
301 ALBERTI DANIEL U.P. POLICIANO AREZZO 1979 A 01:01:51 4,29 51
302 MAGI MARCO ATL. SESTINI AREZZO 1971 C 01:01:53 4,29 65
303 MASSETTI SANDRO MARATHON CLUB C. DI CASTELLO 1960 E 01:01:54 4,29 31
304 LOMBARDI MAURO PODISTICA AREZZO 1947 H 01:01:55 4,29 5
305 NERI CRISTIANO ROAD RUNNERS CLUB MILANO 1976 B 01:02:00 4,30 60
306 BRADASCHIA DANIELE ATL. LIBERTAS ARCS 1983 A 01:02:17 4,31 52
307 PASQUETTI PASQUALE ATL. GARDENIA PG 1952 G 01:02:25 4,31 11
308 ESPOSITO PAOLO AMATORI VESUVIO NA 1972 C 01:02:28 4,32 66
309 IACOMELLI ALESSANDRO TRIATHLON ALTO TEVERE 1971 C 01:02:32 4,32 67
310 MENDICINO SALVATORE ATLETA LIBERO 1959 E 01:02:33 4,32 32
311 PODERINI STEFANO TIFERNO RUNNERS 1984 A 01:02:35 4,32 53
312 BONARINI FABRIZIO PODISTICA AREZZO 1974 B 01:02:36 4,32 61
313 DEL TEGLIA GIULIANO AVIS SANSEPOLCRO 1949 G 01:02:38 4,32 12
314 TESTA FABIO CDP-T&RB GROUP PG 1974 B 01:02:46 4,33 62
315 RUSPI MAURIZIO GUBBIO RUNNERS 1967 D 01:02:47 4,33 59
316 LONGHI STEFANO POD. TIFERNUM 1972 C 01:02:47 4,33 68
317 LACERENZA ARCANGELO G.S. MONTESTELLA 1948 G 01:02:49 4,33 13
318 ALUNNO LAMBERTO GUBBIO RUNNERS 1973 B 01:02:50 4,33 63
319 RANALLI GIOVANNI GUBBIO RUNNERS 1971 C 01:02:52 4,33 69
320 RADICCHI MAURO MARATHON CLUB C. DI CASTELLO 1964 D 01:02:54 4,33 60
321 CAMPANA MICHELE ATL. URBANIA 1971 C 01:02:57 4,34 70
322 MARINANGELI ADRIANO SATRINI GROUP ATHLETIC TREVI 1957 F 01:03:01 4,34 15
323 BASSI GUIDO ATL. SESTINI AREZZO 1965 D 01:03:06 4,34 61
324 BELLINI ALESSIO ATL. IL COLLE PERUGIA 1975 B 01:03:17 4,35 64
325 FALASCHI PATRIZIO TRIATHLON ALTO TEVERE 1971 C 01:03:19 4,35 71
326 ROSATI CORRADO AVIS SANSEPOLCRO 1955 F 01:03:28 4,36 16
327 DEL BENE RICCARDO ASD BIKELAND TEAM 2003 1966 D 01:03:36 4,37 62
328 MILANESCHI DANIELE ATL. SESTINI AREZZO 1972 C 01:03:37 4,37 72
329 RAVAIOLI GIANCARLO G.P. ENDAS CESENA 1946 H 01:03:38 4,37 6
330 VITI CLAUDIO PODISTICA AREZZO 1955 F 01:03:47 4,37 17
331 RADICCHI FRANCESCO CDP-T&RB GROUP PG 1972 C 01:03:49 4,37 73
332 PEDUCCI MAURIZIO CDP-T&RB GROUP PG 1950 G 01:03:54 4,38 14
333 CECCHETTI SIMONE FUGGI TITTA TEAM 1980 A 01:04:01 4,38 54
334 BRUNI MAURO AVIS SANSEPOLCRO 1960 E 01:04:01 4,38 33
335 FADDA ANDREA MARATHON CLUB C. DI CASTELLO 1966 D 01:04:15 4,39 63
336 CIACCIO PIERLUIGI CDP-T&RB GROUP PG 1964 D 01:04:15 4,39 64
337 FALASCHI DANIELE CDP-T&RB GROUP PG 1971 C 01:04:22 4,40 74
338 GIORGINI LORIS ATL. URBANIA 1971 C 01:04:27 4,40 75
339